createdAt,value
2023-02-05T00:00:58.356Z,57.74
2023-02-05T00:03:26.278Z,57.87
2023-02-05T00:05:55.591Z,57.62
2023-02-05T00:08:23.504Z,57.63
2023-02-05T00:10:52.885Z,57.51
2023-02-05T00:13:20.791Z,57.48
2023-02-05T00:15:48.654Z,57.67
2023-02-05T00:18:16.621Z,57.51
2023-02-05T00:20:44.478Z,57.27
2023-02-05T00:23:13.755Z,57.34
2023-02-05T00:25:41.666Z,57.16
2023-02-05T00:28:09.605Z,57.51
2023-02-05T00:30:37.577Z,57.47
2023-02-05T00:33:05.563Z,57.21
2023-02-05T00:35:33.658Z,57.02
2023-02-05T00:38:01.680Z,57.28
2023-02-05T00:40:30.998Z,56.98
2023-02-05T00:42:58.876Z,56.88
2023-02-05T00:45:32.357Z,56.92
2023-02-05T00:48:00.583Z,56.96
2023-02-05T00:50:28.492Z,56.77
2023-02-05T00:52:56.415Z,56.85
2023-02-05T00:55:24.338Z,56.68
2023-02-05T00:57:53.631Z,56.99
2023-02-05T01:00:21.838Z,56.97
2023-02-05T01:02:49.980Z,56.88
2023-02-05T01:05:18.068Z,57.03
2023-02-05T01:07:45.966Z,56.78
2023-02-05T01:10:13.822Z,56.80
2023-02-05T01:12:41.707Z,56.72
2023-02-05T01:15:11.519Z,56.93
2023-02-05T01:17:39.392Z,56.77
2023-02-05T01:20:08.437Z,56.69
2023-02-05T01:22:36.353Z,56.59
2023-02-05T01:25:04.294Z,56.64
2023-02-05T01:27:33.586Z,56.61
2023-02-05T01:30:01.488Z,56.25
2023-02-05T01:32:30.787Z,56.35
2023-02-05T01:34:58.656Z,55.87
2023-02-05T01:37:26.597Z,56.13
2023-02-05T01:39:54.451Z,56.20
2023-02-05T01:42:23.187Z,56.04
2023-02-05T01:45:32.807Z,56.04
2023-02-05T01:48:02.938Z,56.11
2023-02-05T01:50:32.596Z,56.12
2023-02-05T01:53:01.373Z,56.09
2023-02-05T01:55:29.258Z,56.07
2023-02-05T01:57:57.191Z,55.82
2023-02-05T02:00:25.133Z,56.04
2023-02-05T02:02:53.038Z,55.95
2023-02-05T02:05:22.458Z,55.68
2023-02-05T02:07:50.376Z,56.17
2023-02-05T02:10:18.812Z,55.80
2023-02-05T02:12:47.552Z,56.00
2023-02-05T02:15:16.940Z,55.83
2023-02-05T02:17:46.931Z,55.65
2023-02-05T02:20:15.933Z,55.34
2023-02-05T02:22:56.673Z,55.32
2023-02-05T02:25:35.339Z,55.30
2023-02-05T02:28:05.485Z,55.31
2023-02-05T02:30:35.496Z,55.28
2023-02-05T02:33:07.106Z,55.48
2023-02-05T02:35:40.490Z,55.46
2023-02-05T02:38:11.457Z,55.42
2023-02-05T02:40:41.788Z,55.54
2023-02-05T02:43:12.217Z,55.77
2023-02-05T02:45:44.643Z,55.77
2023-02-05T02:48:12.592Z,55.73
2023-02-05T02:50:42.659Z,55.60
2023-02-05T02:53:12.726Z,55.81
2023-02-05T02:55:43.694Z,55.75
2023-02-05T02:58:16.695Z,55.90
2023-02-05T03:00:45.280Z,55.95
2023-02-05T03:03:13.723Z,56.35
2023-02-05T03:05:41.895Z,56.27
2023-02-05T03:08:13.688Z,56.50
2023-02-05T03:10:42.736Z,56.39
2023-02-05T03:13:11.144Z,56.50
2023-02-05T03:15:40.610Z,56.48
2023-02-05T03:18:08.560Z,56.65
2023-02-05T03:20:38.209Z,56.48
2023-02-05T03:23:06.106Z,56.58
2023-02-05T03:25:34.154Z,56.46
2023-02-05T03:28:02.224Z,56.72
2023-02-05T03:30:31.963Z,56.90
2023-02-05T03:33:04.290Z,56.94
2023-02-05T03:35:34.708Z,56.93
2023-02-05T03:38:12.634Z,57.07
2023-02-05T03:40:44.881Z,57.08
2023-02-05T03:43:14.715Z,57.24
2023-02-05T03:45:46.996Z,57.21
2023-02-05T03:48:22.396Z,57.24
2023-02-05T03:50:53.261Z,57.34
2023-02-05T03:53:23.539Z,57.40
2023-02-05T03:55:52.160Z,57.51
2023-02-05T03:58:20.928Z,57.75
2023-02-05T04:00:48.882Z,57.71
2023-02-05T04:03:18.115Z,57.81
2023-02-05T04:05:46.065Z,57.97
2023-02-05T04:08:13.905Z,57.75
2023-02-05T04:10:41.784Z,57.81
2023-02-05T04:13:09.679Z,57.65
2023-02-05T04:15:37.543Z,57.52
2023-02-05T04:18:05.532Z,57.53
2023-02-05T04:20:34.809Z,57.62
2023-02-05T04:23:02.696Z,57.59
2023-02-05T04:25:30.566Z,57.59
2023-02-05T04:27:58.499Z,57.64
2023-02-05T04:30:26.387Z,57.45
2023-02-05T04:32:54.287Z,57.49
2023-02-05T04:35:22.174Z,57.45
2023-02-05T04:37:51.414Z,57.31
2023-02-05T04:40:19.510Z,57.45
2023-02-05T04:42:47.429Z,57.50
2023-02-05T04:45:15.341Z,57.53
2023-02-05T04:47:43.188Z,57.73
2023-02-05T04:50:11.474Z,57.69
2023-02-05T04:52:39.318Z,57.64
2023-02-05T04:55:09.230Z,57.65
2023-02-05T04:57:37.803Z,57.64
2023-02-05T05:00:06.322Z,57.67
2023-02-05T05:02:34.224Z,57.51
2023-02-05T05:05:02.162Z,57.37
2023-02-05T05:07:31.106Z,57.30
2023-02-05T05:09:59.042Z,57.34
2023-02-05T05:12:28.337Z,57.27
2023-02-05T05:14:56.211Z,57.24
2023-02-05T05:17:24.353Z,57.13
2023-02-05T05:19:52.254Z,57.30
2023-02-05T05:22:20.135Z,57.35
2023-02-05T05:24:48.022Z,57.31
2023-02-05T05:27:16.654Z,57.29
2023-02-05T05:29:46.510Z,57.27
2023-02-05T05:32:14.461Z,57.20
2023-02-05T05:34:42.347Z,57.43
2023-02-05T05:37:10.243Z,57.28
2023-02-05T05:39:55.542Z,57.26
2023-02-05T05:42:39.844Z,57.23
2023-02-05T05:45:09.826Z,57.16
2023-02-05T05:47:37.733Z,57.08
2023-02-05T05:50:06.176Z,57.07
2023-02-05T05:52:34.100Z,56.78
2023-02-05T05:55:02.008Z,56.84
2023-02-05T05:57:29.941Z,56.68
2023-02-05T05:59:57.897Z,56.80
2023-02-05T06:02:27.316Z,56.46
2023-02-05T06:04:55.194Z,56.46
2023-02-05T06:07:23.107Z,56.39
2023-02-05T06:09:51.022Z,56.48
2023-02-05T06:12:18.902Z,56.29
2023-02-05T06:14:46.797Z,55.91
2023-02-05T06:17:14.765Z,55.70
2023-02-05T06:19:44.077Z,55.44
2023-02-05T06:22:11.977Z,55.08
2023-02-05T06:24:39.819Z,54.96
2023-02-05T06:27:07.710Z,55.02
2023-02-05T06:29:35.670Z,55.02
2023-02-05T06:32:03.724Z,54.89
2023-02-05T06:34:31.754Z,55.04
2023-02-05T06:37:01.029Z,54.59
2023-02-05T06:39:29.095Z,54.78
2023-02-05T06:41:56.975Z,54.52
2023-02-05T06:44:25.346Z,54.66
2023-02-05T06:46:53.265Z,53.94
2023-02-05T06:49:21.223Z,53.71
2023-02-05T06:51:49.234Z,53.14
2023-02-05T06:54:18.530Z,52.51
2023-02-05T06:56:46.425Z,52.24
2023-02-05T06:59:14.352Z,51.91
2023-02-05T07:01:42.293Z,51.66
2023-02-05T07:04:10.227Z,51.57
2023-02-05T07:06:38.155Z,51.43
2023-02-05T07:09:06.021Z,51.55
2023-02-05T07:11:35.264Z,51.25
2023-02-05T07:14:03.209Z,51.22
2023-02-05T07:16:31.107Z,51.27
2023-02-05T07:18:59.119Z,51.30
2023-02-05T07:21:26.984Z,51.40
2023-02-05T07:23:54.873Z,51.57
2023-02-05T07:26:23.842Z,51.65
2023-02-05T07:28:53.140Z,51.62
2023-02-05T07:31:21.148Z,51.73
2023-02-05T07:33:49.121Z,51.71
2023-02-05T07:36:18.362Z,51.97
2023-02-05T07:38:46.675Z,52.01
2023-02-05T07:41:15.413Z,51.94
2023-02-05T07:43:43.393Z,52.01
2023-02-05T07:46:13.536Z,52.03
2023-02-05T07:48:41.466Z,52.03
2023-02-05T07:51:09.331Z,52.14
2023-02-05T07:53:37.193Z,52.12
2023-02-05T07:56:05.361Z,52.19
2023-02-05T07:58:33.341Z,52.26
2023-02-05T08:01:02.332Z,52.29
2023-02-05T08:03:31.911Z,52.17
2023-02-05T08:05:59.860Z,52.24
2023-02-05T08:08:27.766Z,52.30
2023-02-05T08:10:59.169Z,52.10
2023-02-05T08:13:27.175Z,52.20
2023-02-05T08:15:55.464Z,52.30
2023-02-05T08:18:23.549Z,52.20
2023-02-05T08:20:54.553Z,52.38
2023-02-05T08:23:22.427Z,52.30
2023-02-05T08:25:53.932Z,52.52
2023-02-05T08:28:21.864Z,52.28
2023-02-05T08:30:49.868Z,52.37
2023-02-05T08:33:17.936Z,52.24
2023-02-05T08:35:45.839Z,52.27
2023-02-05T08:38:15.042Z,52.05
2023-02-05T08:40:42.925Z,51.98
2023-02-05T08:43:10.890Z,52.05
2023-02-05T08:45:39.118Z,51.94
2023-02-05T08:48:07.061Z,51.97
2023-02-05T08:50:35.000Z,51.74
2023-02-05T08:53:02.859Z,51.72
2023-02-05T08:55:32.827Z,51.64
2023-02-05T08:58:00.850Z,51.70
2023-02-05T09:00:28.778Z,51.50
2023-02-05T09:02:56.690Z,51.46
2023-02-05T09:05:24.599Z,51.36
2023-02-05T09:07:52.535Z,51.38
2023-02-05T09:10:20.535Z,51.13
2023-02-05T09:12:49.905Z,51.12
2023-02-05T09:15:18.056Z,50.82
2023-02-05T09:17:46.337Z,50.79
2023-02-05T09:20:14.207Z,50.74
2023-02-05T09:22:42.129Z,50.67
2023-02-05T09:25:10.355Z,50.26
2023-02-05T09:27:38.740Z,49.81
2023-02-05T09:30:08.999Z,49.87
2023-02-05T09:32:36.914Z,49.84
2023-02-05T09:35:04.954Z,49.61
2023-02-05T09:37:32.853Z,48.93
2023-02-05T09:42:53.708Z,47.95
2023-02-05T09:45:35.574Z,47.66
2023-02-05T09:48:12.199Z,47.57
2023-02-05T09:50:41.420Z,47.69
2023-02-05T09:53:13.013Z,47.54
2023-02-05T09:55:44.730Z,47.42
2023-02-05T09:58:14.155Z,47.14
2023-02-05T10:00:46.584Z,47.02
2023-02-05T10:03:20.656Z,46.40
2023-02-05T10:05:51.636Z,46.26
2023-02-05T10:08:20.672Z,46.17
2023-02-05T10:10:49.517Z,46.17
2023-02-05T10:13:33.575Z,45.76
2023-02-05T10:16:20.066Z,44.77
2023-02-05T10:18:55.454Z,44.80
2023-02-05T10:21:35.867Z,44.67
2023-02-05T10:24:14.003Z,44.49
2023-02-05T10:26:44.312Z,44.68
2023-02-05T10:29:23.361Z,44.81
2023-02-05T10:31:57.379Z,44.63
2023-02-05T10:34:33.565Z,45.00
2023-02-05T10:37:01.562Z,44.56
2023-02-05T10:39:30.786Z,44.72
2023-02-05T10:42:00.218Z,44.38
2023-02-05T10:44:30.089Z,44.38
2023-02-05T10:47:03.641Z,44.54
2023-02-05T10:49:38.348Z,43.77
2023-02-05T10:52:06.295Z,43.78
2023-02-05T10:54:34.789Z,43.46
2023-02-05T10:57:02.682Z,43.20
2023-02-05T10:59:31.324Z,43.22
2023-02-05T11:02:04.061Z,43.42
2023-02-05T11:04:35.274Z,44.98
2023-02-05T11:07:06.204Z,45.26
2023-02-05T11:09:35.321Z,46.12
2023-02-05T11:12:04.260Z,45.63
2023-02-05T11:14:36.420Z,44.35
2023-02-05T11:17:10.094Z,43.38
2023-02-05T11:19:38.147Z,42.71
2023-02-05T11:22:06.470Z,42.07
2023-02-05T11:24:36.137Z,41.29
2023-02-05T11:27:30.508Z,38.21
2023-02-05T11:30:00.018Z,38.00
2023-02-05T11:32:39.130Z,38.71
2023-02-05T11:35:17.375Z,39.11
2023-02-05T11:37:45.276Z,38.43
2023-02-05T11:40:20.768Z,39.10
2023-02-05T11:42:49.894Z,39.16
2023-02-05T11:45:20.892Z,38.43
2023-02-05T11:47:50.181Z,38.29
2023-02-05T11:50:23.108Z,38.48
2023-02-05T11:52:50.991Z,37.01
2023-02-05T11:55:25.728Z,36.29
2023-02-05T11:57:59.654Z,35.22
2023-02-05T12:00:28.340Z,35.67
2023-02-05T12:03:11.485Z,36.12
2023-02-05T12:05:41.325Z,36.44
2023-02-05T12:08:12.298Z,36.85
2023-02-05T12:10:43.513Z,35.81
2023-02-05T12:13:16.793Z,35.77
2023-02-05T12:15:48.037Z,33.82
2023-02-05T12:18:23.122Z,34.31
2023-02-05T12:20:52.505Z,34.42
2023-02-05T12:23:31.588Z,33.71
2023-02-05T12:26:35.061Z,33.08
2023-02-05T12:29:09.664Z,33.94
2023-02-05T12:31:46.769Z,33.12
2023-02-05T12:34:24.402Z,32.99
2023-02-05T12:37:07.785Z,33.30
2023-02-05T12:39:46.272Z,32.68
2023-02-05T12:42:26.519Z,32.78
2023-02-05T12:45:01.095Z,33.34
2023-02-05T12:47:38.051Z,33.29
2023-02-05T12:50:13.753Z,33.41
2023-02-05T12:52:56.073Z,32.89
2023-02-05T12:55:30.872Z,31.59
2023-02-05T12:58:00.009Z,31.06
2023-02-05T13:00:29.779Z,31.67
2023-02-05T13:03:01.918Z,31.65
2023-02-05T13:05:33.069Z,32.21
2023-02-05T13:08:03.091Z,32.66
2023-02-05T13:10:35.411Z,32.65
2023-02-05T13:13:05.449Z,32.20
2023-02-05T13:15:35.991Z,31.76
2023-02-05T13:18:07.176Z,31.25
2023-02-05T13:20:55.289Z,31.46
2023-02-05T13:23:37.044Z,30.96
2023-02-05T13:26:22.416Z,30.45
2023-02-05T13:28:53.048Z,29.87
2023-02-05T13:31:24.287Z,29.98
2023-02-05T13:33:52.840Z,30.31
2023-02-05T13:37:03.062Z,29.72
2023-02-05T13:40:06.101Z,28.70
2023-02-05T13:42:53.639Z,28.43
2023-02-05T13:45:33.439Z,29.38
2023-02-05T13:48:26.403Z,29.61
2023-02-05T13:51:33.626Z,28.67
2023-02-05T13:54:12.298Z,28.53
2023-02-05T13:56:48.942Z,28.14
2023-02-05T13:59:18.405Z,27.79
2023-02-05T14:01:51.496Z,27.79
2023-02-05T14:04:21.922Z,27.85
2023-02-05T14:06:56.573Z,28.18
2023-02-05T14:09:25.964Z,28.37
2023-02-05T14:11:57.986Z,28.25
2023-02-05T14:14:31.089Z,27.76
2023-02-05T14:16:59.592Z,28.81
2023-02-05T14:19:56.000Z,29.39
2023-02-05T14:22:38.329Z,29.62
2023-02-05T14:25:11.043Z,29.28
2023-02-05T14:27:55.690Z,29.41
2023-02-05T14:30:51.889Z,29.23
2023-02-05T14:33:36.674Z,28.79
2023-02-05T14:36:39.326Z,29.24
2023-02-05T14:39:18.863Z,29.64
2023-02-05T14:41:53.004Z,29.31
2023-02-05T14:44:24.878Z,28.96
2023-02-05T14:47:02.419Z,28.88
2023-02-05T14:49:31.843Z,28.03
2023-02-05T14:52:00.652Z,27.99
2023-02-05T14:54:29.313Z,27.58
2023-02-05T14:57:10.466Z,27.71
2023-02-05T14:59:40.997Z,27.59
2023-02-05T15:02:41.988Z,27.45
2023-02-05T15:05:10.020Z,27.26
2023-02-05T15:07:37.923Z,26.99
2023-02-05T15:10:07.835Z,27.22
2023-02-05T15:12:53.865Z,26.36
2023-02-05T15:15:33.212Z,26.33
2023-02-05T15:18:07.508Z,26.02
2023-02-05T15:20:36.337Z,25.96
2023-02-05T15:23:18.426Z,26.00
2023-02-05T15:25:48.415Z,26.36
2023-02-05T15:28:23.183Z,27.02
2023-02-05T15:31:22.639Z,27.76
2023-02-05T15:33:55.782Z,28.18
2023-02-05T15:36:29.123Z,28.70
2023-02-05T15:39:04.058Z,28.68
2023-02-05T15:41:33.197Z,29.45
2023-02-05T15:44:01.973Z,29.77
2023-02-05T15:46:32.250Z,29.96
2023-02-05T15:49:00.311Z,30.37
2023-02-05T15:51:30.536Z,30.61
2023-02-05T15:53:59.218Z,30.52
2023-02-05T15:56:29.496Z,30.86
2023-02-05T15:59:00.176Z,31.26
2023-02-05T16:01:31.726Z,31.61
2023-02-05T16:03:59.664Z,31.58
2023-02-05T16:06:28.578Z,32.03
2023-02-05T16:08:57.354Z,32.31
2023-02-05T16:11:29.880Z,32.50
2023-02-05T16:14:08.007Z,32.86
2023-02-05T16:16:38.803Z,33.00
2023-02-05T16:19:07.462Z,32.79
2023-02-05T16:21:37.861Z,33.23
2023-02-05T16:24:07.219Z,32.90
2023-02-05T16:26:37.290Z,33.18
2023-02-05T16:29:07.845Z,32.99
2023-02-05T16:31:39.017Z,33.11
2023-02-05T16:34:07.262Z,33.19
2023-02-05T16:36:36.325Z,33.48
2023-02-05T16:39:05.680Z,33.33
2023-02-05T16:41:34.596Z,33.57
2023-02-05T16:44:03.758Z,33.95
2023-02-05T16:46:31.817Z,33.80
2023-02-05T16:49:01.653Z,34.02
2023-02-05T16:51:53.578Z,34.13
2023-02-05T16:54:33.127Z,34.26
2023-02-05T16:57:04.544Z,34.47
2023-02-05T16:59:34.082Z,34.80
2023-02-05T17:02:03.276Z,34.90
2023-02-05T17:04:33.659Z,35.26
2023-02-05T17:07:02.395Z,35.57
2023-02-05T17:09:34.746Z,35.69
2023-02-05T17:12:35.867Z,36.05
2023-02-05T17:15:04.720Z,36.40
2023-02-05T17:17:32.869Z,36.70
2023-02-05T17:20:06.372Z,36.90
2023-02-05T17:22:34.816Z,37.17
2023-02-05T17:25:05.116Z,37.35
2023-02-05T17:27:33.895Z,37.43
2023-02-05T17:30:01.863Z,37.62
2023-02-05T17:32:30.062Z,38.01
2023-02-05T17:34:57.961Z,38.50
2023-02-05T17:37:27.190Z,39.15
2023-02-05T17:39:56.753Z,39.33
2023-02-05T17:42:25.647Z,39.51
2023-02-05T17:44:53.804Z,40.21
2023-02-05T17:47:21.697Z,40.51
2023-02-05T17:49:49.543Z,40.74
2023-02-05T17:52:17.492Z,40.78
2023-02-05T17:54:46.816Z,41.10
2023-02-05T17:57:16.993Z,41.53
2023-02-05T17:59:45.009Z,41.70
2023-02-05T18:02:13.115Z,42.10
2023-02-05T18:04:41.136Z,42.34
2023-02-05T18:07:13.834Z,42.27
2023-02-05T18:09:41.756Z,42.30
2023-02-05T18:12:11.690Z,42.18
2023-02-05T18:14:39.606Z,42.34
2023-02-05T18:17:07.456Z,42.61
2023-02-05T18:19:35.861Z,42.75
2023-02-05T18:22:03.747Z,43.24
2023-02-05T18:24:31.759Z,43.63
2023-02-05T18:26:59.622Z,43.84
2023-02-05T18:29:29.005Z,43.93
2023-02-05T18:31:56.907Z,44.04
2023-02-05T18:34:25.029Z,44.14
2023-02-05T18:36:52.900Z,44.11
2023-02-05T18:39:20.838Z,44.41
2023-02-05T18:41:48.710Z,44.76
2023-02-05T18:44:16.800Z,44.74
2023-02-05T18:46:46.341Z,44.75
2023-02-05T18:49:14.388Z,44.89
2023-02-05T18:51:42.316Z,44.97
2023-02-05T18:54:10.206Z,44.83
2023-02-05T18:56:38.235Z,44.78
2023-02-05T18:59:07.213Z,44.79
2023-02-05T19:01:36.605Z,44.77
2023-02-05T19:04:07.082Z,44.83
2023-02-05T19:06:34.943Z,45.13
2023-02-05T19:09:03.238Z,45.18
2023-02-05T19:11:31.614Z,45.27
2023-02-05T19:14:00.566Z,45.29
2023-02-05T19:16:29.429Z,45.28
2023-02-05T19:18:57.872Z,45.27
2023-02-05T19:21:29.160Z,45.04
2023-02-05T19:23:57.693Z,45.10
2023-02-05T19:26:26.422Z,44.94
2023-02-05T19:28:55.999Z,45.12
2023-02-05T19:31:24.579Z,45.10
2023-02-05T19:33:52.512Z,45.12
2023-02-05T19:36:20.425Z,45.09
2023-02-05T19:38:49.774Z,45.28
2023-02-05T19:41:18.549Z,45.25
2023-02-05T19:43:50.855Z,45.27
2023-02-05T19:46:19.138Z,45.09
2023-02-05T19:48:47.139Z,45.01
2023-02-05T19:51:15.411Z,44.96
2023-02-05T19:53:45.277Z,44.97
2023-02-05T19:56:15.238Z,44.75
2023-02-05T19:58:44.453Z,44.80
2023-02-05T20:01:13.250Z,44.90
2023-02-05T20:03:41.294Z,44.76
2023-02-05T20:06:09.719Z,44.88
2023-02-05T20:08:37.968Z,45.12
2023-02-05T20:11:06.171Z,45.11
2023-02-05T20:13:35.969Z,45.23
2023-02-05T20:16:04.030Z,45.30
2023-02-05T20:18:32.040Z,45.34
2023-02-05T20:21:00.512Z,45.27
2023-02-05T20:23:28.361Z,45.40
2023-02-05T20:25:57.649Z,45.72
2023-02-05T20:28:26.819Z,45.76
2023-02-05T20:31:13.555Z,45.86
2023-02-05T20:33:43.080Z,46.05
2023-02-05T20:36:12.092Z,46.10
2023-02-05T20:38:40.940Z,46.31
2023-02-05T20:41:12.548Z,46.29
2023-02-05T20:43:40.518Z,46.26
2023-02-05T20:46:10.951Z,46.38
2023-02-05T20:48:40.444Z,46.38
2023-02-05T20:51:09.062Z,46.26
2023-02-05T20:53:37.057Z,46.23
2023-02-05T20:56:05.282Z,46.25
2023-02-05T20:58:33.243Z,46.53
2023-02-05T21:01:06.541Z,46.62
2023-02-05T21:03:35.835Z,46.61
2023-02-05T21:06:03.766Z,46.81
2023-02-05T21:08:31.692Z,46.76
2023-02-05T21:10:59.573Z,46.62
2023-02-05T21:13:27.472Z,46.61
2023-02-05T21:15:55.549Z,46.79
2023-02-05T21:18:23.658Z,46.71
2023-02-05T21:20:53.192Z,46.78
2023-02-05T21:23:21.430Z,46.89
2023-02-05T21:25:49.355Z,47.00
2023-02-05T21:28:19.012Z,47.14
2023-02-05T21:30:51.077Z,47.11
2023-02-05T21:33:19.024Z,47.03
2023-02-05T21:35:46.873Z,47.21
2023-02-05T21:38:16.126Z,47.14
2023-02-05T21:40:44.051Z,47.23
2023-02-05T21:43:12.266Z,47.02
2023-02-05T21:45:40.283Z,47.01
2023-02-05T21:48:09.048Z,46.95
2023-02-05T21:50:38.588Z,46.92
2023-02-05T21:53:06.948Z,46.68
2023-02-05T21:55:36.254Z,46.66
2023-02-05T21:58:04.157Z,46.83
2023-02-05T22:00:32.120Z,46.73
2023-02-05T22:02:59.995Z,46.74
2023-02-05T22:05:27.884Z,46.66
2023-02-05T22:07:55.782Z,46.84
2023-02-05T22:10:23.650Z,46.83
2023-02-05T22:12:52.946Z,46.93
2023-02-05T22:15:20.861Z,46.86
2023-02-05T22:17:48.759Z,47.06
2023-02-05T22:20:16.642Z,47.01
2023-02-05T22:22:44.559Z,46.88
2023-02-05T22:25:12.528Z,47.11
2023-02-05T22:27:40.489Z,46.94
2023-02-05T22:30:11.359Z,46.91
2023-02-05T22:32:39.267Z,46.98
2023-02-05T22:35:07.835Z,46.83
2023-02-05T22:37:35.971Z,47.16
2023-02-05T22:40:03.866Z,47.30
2023-02-05T22:42:31.707Z,47.45
2023-02-05T22:44:59.618Z,47.50
2023-02-05T22:47:29.235Z,47.51
2023-02-05T22:49:57.108Z,47.51
2023-02-05T22:52:26.251Z,47.35
2023-02-05T22:54:54.107Z,47.66
2023-02-05T22:57:22.027Z,47.80
2023-02-05T22:59:49.929Z,47.87
2023-02-05T23:02:17.806Z,48.09
2023-02-05T23:04:47.040Z,48.05
2023-02-05T23:07:14.935Z,48.12
2023-02-05T23:09:42.871Z,48.04
2023-02-05T23:12:11.431Z,48.02
2023-02-05T23:14:39.375Z,47.94
2023-02-05T23:17:07.251Z,47.89
2023-02-05T23:19:35.107Z,48.02
2023-02-05T23:22:09.648Z,47.90
2023-02-05T23:24:37.748Z,47.93
2023-02-05T23:27:05.777Z,47.88
2023-02-05T23:29:33.688Z,47.76
2023-02-05T23:32:01.537Z,48.02
2023-02-05T23:34:31.983Z,48.06
2023-02-05T23:37:00.054Z,48.26
2023-02-05T23:39:29.327Z,48.42
2023-02-05T23:41:57.212Z,48.61
2023-02-05T23:44:25.105Z,48.86
2023-02-05T23:46:53.030Z,48.84
2023-02-05T23:49:22.028Z,49.17
2023-02-05T23:51:50.168Z,49.38
2023-02-05T23:54:18.103Z,49.44
2023-02-05T23:56:47.402Z,49.48
2023-02-05T23:59:15.500Z,49.38
